sensor_id;sensor_type;location;lat;lon;timestamp;temperature;humidity
57624;SHT30;43448;52.264;20.644;2023-06-14T00:00:01;25.10;44.86
57624;SHT30;43448;52.264;20.644;2023-06-14T00:10:01;25.06;44.76
57624;SHT30;43448;52.264;20.644;2023-06-14T00:20:02;25.08;44.63
57624;SHT30;43448;52.264;20.644;2023-06-14T00:30:01;25.17;44.52
57624;SHT30;43448;52.264;20.644;2023-06-14T00:40:00;25.10;44.80
57624;SHT30;43448;52.264;20.644;2023-06-14T00:50:01;25.15;44.62
57624;SHT30;43448;52.264;20.644;2023-06-14T01:00:01;25.04;44.80
57624;SHT30;43448;52.264;20.644;2023-06-14T01:10:12;25.10;44.63
57624;SHT30;43448;52.264;20.644;2023-06-14T01:20:01;25.13;44.88
57624;SHT30;43448;52.264;20.644;2023-06-14T01:30:01;25.14;44.76
57624;SHT30;43448;52.264;20.644;2023-06-14T01:40:01;25.19;44.54
57624;SHT30;43448;52.264;20.644;2023-06-14T01:50:01;25.14;44.54
57624;SHT30;43448;52.264;20.644;2023-06-14T02:00:01;25.00;44.73
57624;SHT30;43448;52.264;20.644;2023-06-14T02:10:01;24.83;45.22
57624;SHT30;43448;52.264;20.644;2023-06-14T02:20:01;24.55;45.98
57624;SHT30;43448;52.264;20.644;2023-06-14T02:30:01;24.50;46.03
57624;SHT30;43448;52.264;20.644;2023-06-14T02:40:00;24.39;46.14
57624;SHT30;43448;52.264;20.644;2023-06-14T02:50:01;24.53;45.91
57624;SHT30;43448;52.264;20.644;2023-06-14T03:00:01;24.69;45.26
57624;SHT30;43448;52.264;20.644;2023-06-14T03:10:00;24.73;45.13
57624;SHT30;43448;52.264;20.644;2023-06-14T03:20:01;24.76;45.05
57624;SHT30;43448;52.264;20.644;2023-06-14T03:30:01;24.83;45.27
57624;SHT30;43448;52.264;20.644;2023-06-14T03:40:00;24.83;45.58
57624;SHT30;43448;52.264;20.644;2023-06-14T03:50:01;24.81;45.53
57624;SHT30;43448;52.264;20.644;2023-06-14T04:00:00;24.79;45.79
57624;SHT30;43448;52.264;20.644;2023-06-14T04:10:00;24.83;46.69
57624;SHT30;43448;52.264;20.644;2023-06-14T04:20:02;24.84;46.97
57624;SHT30;43448;52.264;20.644;2023-06-14T04:30:00;24.98;46.58
57624;SHT30;43448;52.264;20.644;2023-06-14T04:40:00;25.11;46.23
57624;SHT30;43448;52.264;20.644;2023-06-14T04:50:01;25.32;45.74
57624;SHT30;43448;52.264;20.644;2023-06-14T05:00:01;25.45;45.49
57624;SHT30;43448;52.264;20.644;2023-06-14T05:10:00;25.53;45.28
57624;SHT30;43448;52.264;20.644;2023-06-14T05:20:00;25.61;44.95
57624;SHT30;43448;52.264;20.644;2023-06-14T05:30:01;25.64;44.78
57624;SHT30;43448;52.264;20.644;2023-06-14T05:40:00;25.68;44.59
57624;SHT30;43448;52.264;20.644;2023-06-14T05:50:00;25.72;44.52
57624;SHT30;43448;52.264;20.644;2023-06-14T06:00:01;25.76;44.30
57624;SHT30;43448;52.264;20.644;2023-06-14T06:10:01;25.79;44.25
57624;SHT30;43448;52.264;20.644;2023-06-14T06:20:01;25.80;44.18
57624;SHT30;43448;52.264;20.644;2023-06-14T06:30:00;25.83;44.16
57624;SHT30;43448;52.264;20.644;2023-06-14T06:40:00;25.85;44.10
57624;SHT30;43448;52.264;20.644;2023-06-14T06:50:00;25.85;44.09
57624;SHT30;43448;52.264;20.644;2023-06-14T07:00:01;25.92;43.94
57624;SHT30;43448;52.264;20.644;2023-06-14T07:10:01;25.93;43.90
57624;SHT30;43448;52.264;20.644;2023-06-14T07:20:02;25.96;43.79
57624;SHT30;43448;52.264;20.644;2023-06-14T07:30:01;25.97;43.74
57624;SHT30;43448;52.264;20.644;2023-06-14T07:40:00;25.99;43.65
57624;SHT30;43448;52.264;20.644;2023-06-14T07:50:00;26.01;43.68
57624;SHT30;43448;52.264;20.644;2023-06-14T08:00:01;26.03;43.54
57624;SHT30;43448;52.264;20.644;2023-06-14T08:10:00;26.07;43.55
57624;SHT30;43448;52.264;20.644;2023-06-14T08:20:01;26.07;43.40
57624;SHT30;43448;52.264;20.644;2023-06-14T08:30:01;26.12;43.38
57624;SHT30;43448;52.264;20.644;2023-06-14T08:40:02;26.13;43.34
57624;SHT30;43448;52.264;20.644;2023-06-14T08:50:01;26.16;43.18
57624;SHT30;43448;52.264;20.644;2023-06-14T09:00:02;26.16;43.37
57624;SHT30;43448;52.264;20.644;2023-06-14T09:10:07;26.19;43.47
57624;SHT30;43448;52.264;20.644;2023-06-14T09:20:01;26.21;43.27
57624;SHT30;43448;52.264;20.644;2023-06-14T09:30:02;26.21;43.62
57624;SHT30;43448;52.264;20.644;2023-06-14T09:40:01;26.26;43.46
57624;SHT30;43448;52.264;20.644;2023-06-14T09:50:00;26.30;43.56
57624;SHT30;43448;52.264;20.644;2023-06-14T10:00:02;26.31;43.30
57624;SHT30;43448;52.264;20.644;2023-06-14T10:10:01;26.35;43.62
57624;SHT30;43448;52.264;20.644;2023-06-14T10:20:18;26.41;43.56
57624;SHT30;43448;52.264;20.644;2023-06-14T10:30:03;26.40;43.68
57624;SHT30;43448;52.264;20.644;2023-06-14T10:40:00;26.44;43.77
57624;SHT30;43448;52.264;20.644;2023-06-14T10:50:05;26.48;43.62
57624;SHT30;43448;52.264;20.644;2023-06-14T11:00:02;26.52;43.62
57624;SHT30;43448;52.264;20.644;2023-06-14T11:10:11;26.58;43.47
57624;SHT30;43448;52.264;20.644;2023-06-14T11:20:08;26.64;43.35
57624;SHT30;43448;52.264;20.644;2023-06-14T11:30:00;26.62;43.16
57624;SHT30;43448;52.264;20.644;2023-06-14T11:40:01;26.65;42.96
57624;SHT30;43448;52.264;20.644;2023-06-14T11:50:01;26.68;42.77
57624;SHT30;43448;52.264;20.644;2023-06-14T12:00:03;26.72;42.58
57624;SHT30;43448;52.264;20.644;2023-06-14T12:10:04;26.71;42.32
57624;SHT30;43448;52.264;20.644;2023-06-14T12:20:05;26.74;42.15
57624;SHT30;43448;52.264;20.644;2023-06-14T12:30:02;26.77;41.99
57624;SHT30;43448;52.264;20.644;2023-06-14T12:40:01;26.82;41.82
57624;SHT30;43448;52.264;20.644;2023-06-14T12:50:00;26.85;41.63
57624;SHT30;43448;52.264;20.644;2023-06-14T13:00:01;26.85;41.48
57624;SHT30;43448;52.264;20.644;2023-06-14T13:10:01;26.91;41.27
57624;SHT30;43448;52.264;20.644;2023-06-14T13:20:00;26.96;41.01
57624;SHT30;43448;52.264;20.644;2023-06-14T13:30:02;27.02;40.72
57624;SHT30;43448;52.264;20.644;2023-06-14T13:40:01;27.03;40.48
57624;SHT30;43448;52.264;20.644;2023-06-14T13:50:00;27.09;40.36
57624;SHT30;43448;52.264;20.644;2023-06-14T14:00:01;27.06;40.20
57624;SHT30;43448;52.264;20.644;2023-06-14T14:10:01;27.07;40.16
57624;SHT30;43448;52.264;20.644;2023-06-14T14:20:00;27.06;40.21
57624;SHT30;43448;52.264;20.644;2023-06-14T14:30:01;27.06;40.20
57624;SHT30;43448;52.264;20.644;2023-06-14T14:40:00;27.12;40.12
57624;SHT30;43448;52.264;20.644;2023-06-14T14:50:00;27.13;40.15
57624;SHT30;43448;52.264;20.644;2023-06-14T15:00:01;27.19;40.20
57624;SHT30;43448;52.264;20.644;2023-06-14T15:10:00;27.21;40.25
57624;SHT30;43448;52.264;20.644;2023-06-14T15:20:00;27.22;40.29
57624;SHT30;43448;52.264;20.644;2023-06-14T15:30:00;27.07;39.64
57624;SHT30;43448;52.264;20.644;2023-06-14T15:40:01;27.02;39.62
57624;SHT30;43448;52.264;20.644;2023-06-14T15:50:00;26.95;40.00
57624;SHT30;43448;52.264;20.644;2023-06-14T16:00:01;26.95;40.23
57624;SHT30;43448;52.264;20.644;2023-06-14T16:10:00;26.79;40.54
57624;SHT30;43448;52.264;20.644;2023-06-14T16:20:01;26.82;40.82
57624;SHT30;43448;52.264;20.644;2023-06-14T16:30:00;26.71;40.85
57624;SHT30;43448;52.264;20.644;2023-06-14T16:40:01;26.70;41.01
57624;SHT30;43448;52.264;20.644;2023-06-14T16:50:01;26.67;41.12
57624;SHT30;43448;52.264;20.644;2023-06-14T17:00:01;26.59;41.51
57624;SHT30;43448;52.264;20.644;2023-06-14T17:10:00;26.62;41.39
57624;SHT30;43448;52.264;20.644;2023-06-14T17:20:00;26.58;41.41
57624;SHT30;43448;52.264;20.644;2023-06-14T17:30:00;26.58;41.60
57624;SHT30;43448;52.264;20.644;2023-06-14T17:40:01;26.59;41.60
57624;SHT30;43448;52.264;20.644;2023-06-14T17:50:00;26.54;41.36
57624;SHT30;43448;52.264;20.644;2023-06-14T18:00:01;26.45;41.62
57624;SHT30;43448;52.264;20.644;2023-06-14T18:10:00;26.35;42.00
57624;SHT30;43448;52.264;20.644;2023-06-14T18:20:00;26.31;43.13
57624;SHT30;43448;52.264;20.644;2023-06-14T18:30:01;26.30;44.14
57624;SHT30;43448;52.264;20.644;2023-06-14T18:40:00;26.31;44.55
57624;SHT30;43448;52.264;20.644;2023-06-14T18:50:01;26.27;44.82
57624;SHT30;43448;52.264;20.644;2023-06-14T19:00:01;26.23;44.89
57624;SHT30;43448;52.264;20.644;2023-06-14T19:10:00;26.30;44.37
57624;SHT30;43448;52.264;20.644;2023-06-14T19:20:00;26.33;44.81
57624;SHT30;43448;52.264;20.644;2023-06-14T19:30:01;26.28;45.39
57624;SHT30;43448;52.264;20.644;2023-06-14T19:40:00;26.24;45.79
57624;SHT30;43448;52.264;20.644;2023-06-14T19:50:00;26.21;45.85
57624;SHT30;43448;52.264;20.644;2023-06-14T20:00:01;26.16;46.44
57624;SHT30;43448;52.264;20.644;2023-06-14T20:10:02;26.04;46.71
57624;SHT30;43448;52.264;20.644;2023-06-14T20:20:00;25.99;46.96
57624;SHT30;43448;52.264;20.644;2023-06-14T20:30:01;25.95;47.17
57624;SHT30;43448;52.264;20.644;2023-06-14T20:40:00;25.89;47.25
57624;SHT30;43448;52.264;20.644;2023-06-14T20:50:00;25.80;47.22
57624;SHT30;43448;52.264;20.644;2023-06-14T21:00:01;25.72;47.15
57624;SHT30;43448;52.264;20.644;2023-06-14T21:10:00;25.66;46.81
57624;SHT30;43448;52.264;20.644;2023-06-14T21:20:01;25.61;46.88
57624;SHT30;43448;52.264;20.644;2023-06-14T21:30:00;25.50;46.67
57624;SHT30;43448;52.264;20.644;2023-06-14T21:40:00;25.52;46.20
57624;SHT30;43448;52.264;20.644;2023-06-14T21:50:00;25.46;46.01
57624;SHT30;43448;52.264;20.644;2023-06-14T22:00:01;25.32;46.27
57624;SHT30;43448;52.264;20.644;2023-06-14T22:10:01;25.41;46.29
57624;SHT30;43448;52.264;20.644;2023-06-14T22:20:01;25.46;45.91
57624;SHT30;43448;52.264;20.644;2023-06-14T22:30:00;25.35;46.34
57624;SHT30;43448;52.264;20.644;2023-06-14T22:40:00;25.32;46.35
57624;SHT30;43448;52.264;20.644;2023-06-14T22:50:00;25.35;46.12
57624;SHT30;43448;52.264;20.644;2023-06-14T23:00:01;25.37;46.01
57624;SHT30;43448;52.264;20.644;2023-06-14T23:10:01;25.29;46.23
57624;SHT30;43448;52.264;20.644;2023-06-14T23:20:01;25.34;45.90
57624;SHT30;43448;52.264;20.644;2023-06-14T23:30:01;25.38;45.87
57624;SHT30;43448;52.264;20.644;2023-06-14T23:40:01;25.39;45.99
57624;SHT30;43448;52.264;20.644;2023-06-14T23:50:00;25.28;46.45
